sensor_id;sensor_type;location;lat;lon;timestamp;temperature;humidity
6758;DHT22;3416;53.074;8.822;2022-12-29T00:01:59;10.40;99.90
6758;DHT22;3416;53.074;8.822;2022-12-29T00:04:27;10.30;99.90
6758;DHT22;3416;53.074;8.822;2022-12-29T00:06:54;10.40;99.90
6758;DHT22;3416;53.074;8.822;2022-12-29T00:09:21;10.40;99.90
6758;DHT22;3416;53.074;8.822;2022-12-29T00:11:48;10.40;99.90
6758;DHT22;3416;53.074;8.822;2022-12-29T00:14:16;10.40;99.90
6758;DHT22;3416;53.074;8.822;2022-12-29T00:17:01;10.40;99.90
6758;DHT22;3416;53.074;8.822;2022-12-29T00:19:29;10.50;99.90
6758;DHT22;3416;53.074;8.822;2022-12-29T00:22:15;10.40;99.90
6758;DHT22;3416;53.074;8.822;2022-12-29T00:25:00;10.40;99.90
6758;DHT22;3416;53.074;8.822;2022-12-29T00:27:44;10.50;99.90
6758;DHT22;3416;53.074;8.822;2022-12-29T00:30:29;10.60;99.90
6758;DHT22;3416;53.074;8.822;2022-12-29T00:33:14;10.50;99.90
6758;DHT22;3416;53.074;8.822;2022-12-29T00:36:03;10.60;99.90
6758;DHT22;3416;53.074;8.822;2022-12-29T00:38:32;10.60;99.90
6758;DHT22;3416;53.074;8.822;2022-12-29T00:41:18;10.60;99.90
6758;DHT22;3416;53.074;8.822;2022-12-29T00:44:03;10.70;99.90
6758;DHT22;3416;53.074;8.822;2022-12-29T00:46:33;10.70;99.90
6758;DHT22;3416;53.074;8.822;2022-12-29T00:49:01;10.70;99.90
6758;DHT22;3416;53.074;8.822;2022-12-29T00:51:47;10.80;99.90
6758;DHT22;3416;53.074;8.822;2022-12-29T00:54:15;10.80;99.90
6758;DHT22;3416;53.074;8.822;2022-12-29T00:56:42;10.80;99.90
6758;DHT22;3416;53.074;8.822;2022-12-29T00:59:10;10.80;99.90
6758;DHT22;3416;53.074;8.822;2022-12-29T01:01:38;10.80;99.90
6758;DHT22;3416;53.074;8.822;2022-12-29T01:04:05;10.80;99.90
6758;DHT22;3416;53.074;8.822;2022-12-29T01:06:34;10.90;99.90
6758;DHT22;3416;53.074;8.822;2022-12-29T01:09:03;10.90;99.90
6758;DHT22;3416;53.074;8.822;2022-12-29T01:11:49;10.80;99.90
6758;DHT22;3416;53.074;8.822;2022-12-29T01:14:16;10.80;99.90
6758;DHT22;3416;53.074;8.822;2022-12-29T01:16:43;10.90;99.90
6758;DHT22;3416;53.074;8.822;2022-12-29T01:19:10;11.00;99.90
6758;DHT22;3416;53.074;8.822;2022-12-29T01:21:36;11.00;99.90
6758;DHT22;3416;53.074;8.822;2022-12-29T01:24:08;11.00;99.90
6758;DHT22;3416;53.074;8.822;2022-12-29T01:26:35;11.00;99.90
6758;DHT22;3416;53.074;8.822;2022-12-29T01:29:02;11.00;99.90
6758;DHT22;3416;53.074;8.822;2022-12-29T01:31:29;11.00;99.90
6758;DHT22;3416;53.074;8.822;2022-12-29T01:33:56;11.10;99.90
6758;DHT22;3416;53.074;8.822;2022-12-29T01:36:24;11.10;99.90
6758;DHT22;3416;53.074;8.822;2022-12-29T01:38:51;11.10;99.90
6758;DHT22;3416;53.074;8.822;2022-12-29T01:41:19;11.10;99.90
6758;DHT22;3416;53.074;8.822;2022-12-29T01:46:47;11.10;99.90
6758;DHT22;3416;53.074;8.822;2022-12-29T01:49:19;11.10;99.90
6758;DHT22;3416;53.074;8.822;2022-12-29T01:51:49;11.20;99.90
6758;DHT22;3416;53.074;8.822;2022-12-29T01:54:22;11.10;99.90
6758;DHT22;3416;53.074;8.822;2022-12-29T01:56:53;11.10;99.90
6758;DHT22;3416;53.074;8.822;2022-12-29T01:59:25;11.20;99.90
6758;DHT22;3416;53.074;8.822;2022-12-29T02:01:54;11.20;99.90
6758;DHT22;3416;53.074;8.822;2022-12-29T02:04:23;11.20;99.90
6758;DHT22;3416;53.074;8.822;2022-12-29T02:06:54;11.30;99.90
6758;DHT22;3416;53.074;8.822;2022-12-29T02:09:23;11.30;99.90
6758;DHT22;3416;53.074;8.822;2022-12-29T02:11:51;11.20;99.90
6758;DHT22;3416;53.074;8.822;2022-12-29T02:14:18;11.30;99.90
6758;DHT22;3416;53.074;8.822;2022-12-29T02:17:01;11.30;99.90
6758;DHT22;3416;53.074;8.822;2022-12-29T02:22:35;11.30;99.90
6758;DHT22;3416;53.074;8.822;2022-12-29T02:25:34;11.30;99.90
6758;DHT22;3416;53.074;8.822;2022-12-29T02:28:25;11.30;99.90
6758;DHT22;3416;53.074;8.822;2022-12-29T02:31:04;11.30;99.90
6758;DHT22;3416;53.074;8.822;2022-12-29T02:33:42;11.30;99.90
6758;DHT22;3416;53.074;8.822;2022-12-29T02:36:23;11.30;99.90
6758;DHT22;3416;53.074;8.822;2022-12-29T02:38:59;11.30;99.90
6758;DHT22;3416;53.074;8.822;2022-12-29T02:41:50;11.30;99.90
6758;DHT22;3416;53.074;8.822;2022-12-29T02:44:26;11.40;99.90
6758;DHT22;3416;53.074;8.822;2022-12-29T02:47:00;11.40;99.90
6758;DHT22;3416;53.074;8.822;2022-12-29T02:49:34;11.40;99.90
6758;DHT22;3416;53.074;8.822;2022-12-29T02:52:05;11.40;99.90
6758;DHT22;3416;53.074;8.822;2022-12-29T02:54:33;11.50;99.90
6758;DHT22;3416;53.074;8.822;2022-12-29T02:57:12;11.50;99.90
6758;DHT22;3416;53.074;8.822;2022-12-29T02:59:41;11.50;99.90
6758;DHT22;3416;53.074;8.822;2022-12-29T03:02:22;11.50;99.90
6758;DHT22;3416;53.074;8.822;2022-12-29T03:08:00;11.60;99.90
6758;DHT22;3416;53.074;8.822;2022-12-29T03:10:37;11.60;99.90
6758;DHT22;3416;53.074;8.822;2022-12-29T03:13:15;11.60;99.90
6758;DHT22;3416;53.074;8.822;2022-12-29T03:16:07;11.60;99.90
6758;DHT22;3416;53.074;8.822;2022-12-29T03:18:41;11.60;99.90
6758;DHT22;3416;53.074;8.822;2022-12-29T03:21:14;11.60;99.90
6758;DHT22;3416;53.074;8.822;2022-12-29T03:23:44;11.60;99.90
6758;DHT22;3416;53.074;8.822;2022-12-29T03:26:16;11.70;99.90
6758;DHT22;3416;53.074;8.822;2022-12-29T03:28:47;11.60;99.90
6758;DHT22;3416;53.074;8.822;2022-12-29T03:31:17;11.50;99.90
6758;DHT22;3416;53.074;8.822;2022-12-29T03:33:47;11.50;99.90
6758;DHT22;3416;53.074;8.822;2022-12-29T03:36:25;11.60;99.90
6758;DHT22;3416;53.074;8.822;2022-12-29T03:38:58;11.50;99.90
6758;DHT22;3416;53.074;8.822;2022-12-29T03:41:30;11.40;99.90
6758;DHT22;3416;53.074;8.822;2022-12-29T03:43:57;11.40;99.90
6758;DHT22;3416;53.074;8.822;2022-12-29T03:46:24;11.50;99.90
6758;DHT22;3416;53.074;8.822;2022-12-29T03:48:52;11.50;99.90
6758;DHT22;3416;53.074;8.822;2022-12-29T03:51:19;11.50;99.90
6758;DHT22;3416;53.074;8.822;2022-12-29T03:53:46;11.50;99.90
6758;DHT22;3416;53.074;8.822;2022-12-29T03:56:13;11.50;99.90
6758;DHT22;3416;53.074;8.822;2022-12-29T03:58:40;11.50;99.90
6758;DHT22;3416;53.074;8.822;2022-12-29T04:01:07;11.50;99.90
6758;DHT22;3416;53.074;8.822;2022-12-29T04:03:34;11.40;99.90
6758;DHT22;3416;53.074;8.822;2022-12-29T04:06:02;11.40;99.90
6758;DHT22;3416;53.074;8.822;2022-12-29T04:08:29;11.40;99.90
6758;DHT22;3416;53.074;8.822;2022-12-29T04:10:56;11.30;99.90
6758;DHT22;3416;53.074;8.822;2022-12-29T04:13:23;11.30;99.90
6758;DHT22;3416;53.074;8.822;2022-12-29T04:15:50;11.20;99.90
6758;DHT22;3416;53.074;8.822;2022-12-29T04:18:18;11.20;99.90
6758;DHT22;3416;53.074;8.822;2022-12-29T04:20:45;11.10;99.90
6758;DHT22;3416;53.074;8.822;2022-12-29T04:23:30;11.10;99.90
6758;DHT22;3416;53.074;8.822;2022-12-29T04:25:58;11.10;99.90
6758;DHT22;3416;53.074;8.822;2022-12-29T04:28:25;11.10;99.90
6758;DHT22;3416;53.074;8.822;2022-12-29T04:30:52;11.00;99.90
6758;DHT22;3416;53.074;8.822;2022-12-29T04:33:19;11.10;99.90
6758;DHT22;3416;53.074;8.822;2022-12-29T04:35:46;11.10;99.90
6758;DHT22;3416;53.074;8.822;2022-12-29T04:38:14;11.10;99.90
6758;DHT22;3416;53.074;8.822;2022-12-29T04:40:43;11.10;99.90
6758;DHT22;3416;53.074;8.822;2022-12-29T04:43:10;11.10;99.90
6758;DHT22;3416;53.074;8.822;2022-12-29T04:45:38;11.10;99.90
6758;DHT22;3416;53.074;8.822;2022-12-29T04:48:05;11.10;99.90
6758;DHT22;3416;53.074;8.822;2022-12-29T04:50:32;11.10;99.90
6758;DHT22;3416;53.074;8.822;2022-12-29T04:52:59;11.20;99.90
6758;DHT22;3416;53.074;8.822;2022-12-29T04:55:26;11.20;99.90
6758;DHT22;3416;53.074;8.822;2022-12-29T04:57:54;11.20;99.90
6758;DHT22;3416;53.074;8.822;2022-12-29T05:00:22;11.20;99.90
6758;DHT22;3416;53.074;8.822;2022-12-29T05:02:49;11.30;99.90
6758;DHT22;3416;53.074;8.822;2022-12-29T05:05:16;11.30;99.90
6758;DHT22;3416;53.074;8.822;2022-12-29T05:07:43;11.20;99.90
6758;DHT22;3416;53.074;8.822;2022-12-29T05:10:10;11.20;99.90
6758;DHT22;3416;53.074;8.822;2022-12-29T05:12:38;11.30;99.90
6758;DHT22;3416;53.074;8.822;2022-12-29T05:15:08;11.30;99.90
6758;DHT22;3416;53.074;8.822;2022-12-29T05:17:37;11.30;99.90
6758;DHT22;3416;53.074;8.822;2022-12-29T05:20:05;11.40;99.90
6758;DHT22;3416;53.074;8.822;2022-12-29T05:22:32;11.40;99.90
6758;DHT22;3416;53.074;8.822;2022-12-29T05:24:59;11.20;99.90
6758;DHT22;3416;53.074;8.822;2022-12-29T05:27:26;11.10;99.90
6758;DHT22;3416;53.074;8.822;2022-12-29T05:29:53;10.90;99.90
6758;DHT22;3416;53.074;8.822;2022-12-29T05:32:21;10.80;99.90
6758;DHT22;3416;53.074;8.822;2022-12-29T05:34:48;10.70;99.90
6758;DHT22;3416;53.074;8.822;2022-12-29T05:37:15;10.70;99.90
6758;DHT22;3416;53.074;8.822;2022-12-29T05:39:42;10.70;99.90
6758;DHT22;3416;53.074;8.822;2022-12-29T05:42:09;10.60;99.90
6758;DHT22;3416;53.074;8.822;2022-12-29T05:44:36;10.60;99.90
6758;DHT22;3416;53.074;8.822;2022-12-29T05:47:03;10.70;99.90
6758;DHT22;3416;53.074;8.822;2022-12-29T05:49:32;10.70;99.90
6758;DHT22;3416;53.074;8.822;2022-12-29T05:51:59;10.70;99.90
6758;DHT22;3416;53.074;8.822;2022-12-29T05:54:25;10.80;99.90
6758;DHT22;3416;53.074;8.822;2022-12-29T05:56:52;10.80;99.90
6758;DHT22;3416;53.074;8.822;2022-12-29T05:59:19;10.80;99.90
6758;DHT22;3416;53.074;8.822;2022-12-29T06:01:46;10.90;99.90
6758;DHT22;3416;53.074;8.822;2022-12-29T06:04:13;10.90;99.90
6758;DHT22;3416;53.074;8.822;2022-12-29T06:06:41;11.00;99.90
6758;DHT22;3416;53.074;8.822;2022-12-29T06:09:09;11.00;99.90
6758;DHT22;3416;53.074;8.822;2022-12-29T06:11:36;11.00;99.90
6758;DHT22;3416;53.074;8.822;2022-12-29T06:14:03;11.10;99.90
6758;DHT22;3416;53.074;8.822;2022-12-29T06:16:30;11.10;99.90
6758;DHT22;3416;53.074;8.822;2022-12-29T06:18:57;11.10;99.90
6758;DHT22;3416;53.074;8.822;2022-12-29T06:21:24;11.10;99.90
6758;DHT22;3416;53.074;8.822;2022-12-29T06:23:53;11.10;99.90
6758;DHT22;3416;53.074;8.822;2022-12-29T06:26:20;11.20;99.90
6758;DHT22;3416;53.074;8.822;2022-12-29T06:28:47;11.20;99.90
6758;DHT22;3416;53.074;8.822;2022-12-29T06:31:14;11.30;99.90
6758;DHT22;3416;53.074;8.822;2022-12-29T06:33:41;11.40;99.90
6758;DHT22;3416;53.074;8.822;2022-12-29T06:36:08;11.40;99.90
6758;DHT22;3416;53.074;8.822;2022-12-29T06:38:35;11.40;99.90
6758;DHT22;3416;53.074;8.822;2022-12-29T06:41:03;11.40;99.90
6758;DHT22;3416;53.074;8.822;2022-12-29T06:43:30;11.40;99.90
6758;DHT22;3416;53.074;8.822;2022-12-29T06:45:58;11.30;99.90
6758;DHT22;3416;53.074;8.822;2022-12-29T06:48:24;11.20;99.90
6758;DHT22;3416;53.074;8.822;2022-12-29T06:50:52;11.20;99.90
6758;DHT22;3416;53.074;8.822;2022-12-29T06:53:18;11.10;99.90
6758;DHT22;3416;53.074;8.822;2022-12-29T06:55:45;11.10;99.90
6758;DHT22;3416;53.074;8.822;2022-12-29T06:58:14;11.00;99.90
6758;DHT22;3416;53.074;8.822;2022-12-29T07:00:41;11.00;99.90
6758;DHT22;3416;53.074;8.822;2022-12-29T07:03:08;11.00;99.90
6758;DHT22;3416;53.074;8.822;2022-12-29T07:05:37;10.80;99.90
6758;DHT22;3416;53.074;8.822;2022-12-29T07:08:04;10.80;99.90
6758;DHT22;3416;53.074;8.822;2022-12-29T07:10:31;10.80;99.90
6758;DHT22;3416;53.074;8.822;2022-12-29T07:12:58;10.70;99.90
6758;DHT22;3416;53.074;8.822;2022-12-29T07:15:26;10.70;99.90
6758;DHT22;3416;53.074;8.822;2022-12-29T07:17:53;10.60;99.90
6758;DHT22;3416;53.074;8.822;2022-12-29T07:20:20;10.60;99.90
6758;DHT22;3416;53.074;8.822;2022-12-29T07:22:47;10.60;99.90
6758;DHT22;3416;53.074;8.822;2022-12-29T07:25:14;10.50;99.90
6758;DHT22;3416;53.074;8.822;2022-12-29T07:27:41;10.40;99.90
6758;DHT22;3416;53.074;8.822;2022-12-29T07:30:08;10.40;99.90
6758;DHT22;3416;53.074;8.822;2022-12-29T07:32:37;10.40;99.90
6758;DHT22;3416;53.074;8.822;2022-12-29T07:35:04;10.40;99.90
6758;DHT22;3416;53.074;8.822;2022-12-29T07:37:31;10.30;99.90
6758;DHT22;3416;53.074;8.822;2022-12-29T07:40:00;10.30;99.90
6758;DHT22;3416;53.074;8.822;2022-12-29T07:42:34;10.30;99.90
6758;DHT22;3416;53.074;8.822;2022-12-29T07:45:03;10.30;99.90
6758;DHT22;3416;53.074;8.822;2022-12-29T07:47:31;10.30;99.90
6758;DHT22;3416;53.074;8.822;2022-12-29T07:49:59;10.30;99.90
6758;DHT22;3416;53.074;8.822;2022-12-29T07:52:26;10.30;99.90
6758;DHT22;3416;53.074;8.822;2022-12-29T07:54:53;10.30;99.90
6758;DHT22;3416;53.074;8.822;2022-12-29T07:57:20;10.40;99.90
6758;DHT22;3416;53.074;8.822;2022-12-29T07:59:47;10.40;99.90
6758;DHT22;3416;53.074;8.822;2022-12-29T08:02:14;10.40;99.90
6758;DHT22;3416;53.074;8.822;2022-12-29T08:04:41;10.40;99.90
6758;DHT22;3416;53.074;8.822;2022-12-29T08:07:09;10.40;99.90
6758;DHT22;3416;53.074;8.822;2022-12-29T08:09:36;10.40;99.90
6758;DHT22;3416;53.074;8.822;2022-12-29T08:12:03;10.40;99.90
6758;DHT22;3416;53.074;8.822;2022-12-29T08:14:30;10.40;99.90
6758;DHT22;3416;53.074;8.822;2022-12-29T08:16:57;10.40;99.90
6758;DHT22;3416;53.074;8.822;2022-12-29T08:19:23;10.40;99.90
6758;DHT22;3416;53.074;8.822;2022-12-29T08:21:50;10.40;99.90
6758;DHT22;3416;53.074;8.822;2022-12-29T08:24:19;10.50;99.90
6758;DHT22;3416;53.074;8.822;2022-12-29T08:26:46;10.50;99.90
6758;DHT22;3416;53.074;8.822;2022-12-29T08:29:13;10.50;99.90
6758;DHT22;3416;53.074;8.822;2022-12-29T08:31:40;10.50;99.90
6758;DHT22;3416;53.074;8.822;2022-12-29T08:34:07;10.60;99.90
6758;DHT22;3416;53.074;8.822;2022-12-29T08:36:34;10.60;99.90
6758;DHT22;3416;53.074;8.822;2022-12-29T08:39:01;10.70;99.90
6758;DHT22;3416;53.074;8.822;2022-12-29T08:41:29;10.60;99.90
6758;DHT22;3416;53.074;8.822;2022-12-29T08:43:56;10.70;99.90
6758;DHT22;3416;53.074;8.822;2022-12-29T08:46:23;10.70;99.90
6758;DHT22;3416;53.074;8.822;2022-12-29T08:48:50;10.70;99.90
6758;DHT22;3416;53.074;8.822;2022-12-29T08:51:17;10.90;99.90
6758;DHT22;3416;53.074;8.822;2022-12-29T08:53:44;10.90;99.90
6758;DHT22;3416;53.074;8.822;2022-12-29T08:56:12;11.20;99.90
6758;DHT22;3416;53.074;8.822;2022-12-29T08:58:40;11.60;99.90
6758;DHT22;3416;53.074;8.822;2022-12-29T09:01:09;11.80;99.90
6758;DHT22;3416;53.074;8.822;2022-12-29T09:03:36;12.10;99.90
6758;DHT22;3416;53.074;8.822;2022-12-29T09:06:03;12.30;99.90
6758;DHT22;3416;53.074;8.822;2022-12-29T09:08:30;12.30;99.90
6758;DHT22;3416;53.074;8.822;2022-12-29T09:11:06;11.80;99.90
6758;DHT22;3416;53.074;8.822;2022-12-29T09:13:33;11.40;99.90
6758;DHT22;3416;53.074;8.822;2022-12-29T09:16:02;11.20;99.90
6758;DHT22;3416;53.074;8.822;2022-12-29T09:18:29;11.40;99.90
6758;DHT22;3416;53.074;8.822;2022-12-29T09:20:57;11.40;99.90
6758;DHT22;3416;53.074;8.822;2022-12-29T09:23:24;11.60;99.90
6758;DHT22;3416;53.074;8.822;2022-12-29T09:25:51;11.50;99.90
6758;DHT22;3416;53.074;8.822;2022-12-29T09:28:18;11.20;99.90
6758;DHT22;3416;53.074;8.822;2022-12-29T09:30:45;11.20;99.90
6758;DHT22;3416;53.074;8.822;2022-12-29T09:33:13;11.20;99.90
6758;DHT22;3416;53.074;8.822;2022-12-29T09:35:41;11.20;99.90
6758;DHT22;3416;53.074;8.822;2022-12-29T09:38:09;11.20;99.90
6758;DHT22;3416;53.074;8.822;2022-12-29T09:40:36;11.20;99.90
6758;DHT22;3416;53.074;8.822;2022-12-29T09:43:23;11.20;99.90
6758;DHT22;3416;53.074;8.822;2022-12-29T09:45:58;11.20;99.90
6758;DHT22;3416;53.074;8.822;2022-12-29T09:48:36;11.20;99.90
6758;DHT22;3416;53.074;8.822;2022-12-29T09:51:13;11.20;99.90
6758;DHT22;3416;53.074;8.822;2022-12-29T09:53:43;11.20;99.90
6758;DHT22;3416;53.074;8.822;2022-12-29T09:56:15;11.10;99.90
6758;DHT22;3416;53.074;8.822;2022-12-29T09:58:47;11.10;99.90
6758;DHT22;3416;53.074;8.822;2022-12-29T10:01:23;11.00;99.90
6758;DHT22;3416;53.074;8.822;2022-12-29T10:03:57;11.00;99.90
6758;DHT22;3416;53.074;8.822;2022-12-29T10:06:32;11.00;99.90
6758;DHT22;3416;53.074;8.822;2022-12-29T10:09:02;11.30;99.90
6758;DHT22;3416;53.074;8.822;2022-12-29T10:11:51;11.30;99.90
6758;DHT22;3416;53.074;8.822;2022-12-29T10:14:37;11.40;99.90
6758;DHT22;3416;53.074;8.822;2022-12-29T10:17:18;11.40;99.90
6758;DHT22;3416;53.074;8.822;2022-12-29T10:20:02;11.40;99.90
6758;DHT22;3416;53.074;8.822;2022-12-29T10:22:43;11.30;99.90
6758;DHT22;3416;53.074;8.822;2022-12-29T10:25:17;11.20;99.90
6758;DHT22;3416;53.074;8.822;2022-12-29T10:27:47;11.00;99.90
6758;DHT22;3416;53.074;8.822;2022-12-29T10:30:15;11.00;99.90
6758;DHT22;3416;53.074;8.822;2022-12-29T10:32:47;11.10;99.90
6758;DHT22;3416;53.074;8.822;2022-12-29T10:35:18;11.40;99.90
6758;DHT22;3416;53.074;8.822;2022-12-29T10:37:50;11.60;99.90
6758;DHT22;3416;53.074;8.822;2022-12-29T10:40:23;11.60;99.90
6758;DHT22;3416;53.074;8.822;2022-12-29T10:42:53;11.50;99.90
6758;DHT22;3416;53.074;8.822;2022-12-29T10:45:24;11.30;99.90
6758;DHT22;3416;53.074;8.822;2022-12-29T10:47:54;11.10;99.90
6758;DHT22;3416;53.074;8.822;2022-12-29T10:50:25;11.30;99.90
6758;DHT22;3416;53.074;8.822;2022-12-29T10:52:54;11.30;99.90
6758;DHT22;3416;53.074;8.822;2022-12-29T10:55:25;11.20;99.90
6758;DHT22;3416;53.074;8.822;2022-12-29T10:57:55;11.40;99.90
6758;DHT22;3416;53.074;8.822;2022-12-29T11:00:24;11.50;99.90
6758;DHT22;3416;53.074;8.822;2022-12-29T11:03:11;11.60;99.90
6758;DHT22;3416;53.074;8.822;2022-12-29T11:05:46;11.60;99.90
6758;DHT22;3416;53.074;8.822;2022-12-29T11:08:17;11.50;99.90
6758;DHT22;3416;53.074;8.822;2022-12-29T11:10:46;11.30;99.90
6758;DHT22;3416;53.074;8.822;2022-12-29T11:13:26;11.50;99.90
6758;DHT22;3416;53.074;8.822;2022-12-29T11:15:53;11.60;99.90
6758;DHT22;3416;53.074;8.822;2022-12-29T11:18:22;11.70;99.90
6758;DHT22;3416;53.074;8.822;2022-12-29T11:20:52;11.50;99.90
6758;DHT22;3416;53.074;8.822;2022-12-29T11:23:24;11.70;99.90
6758;DHT22;3416;53.074;8.822;2022-12-29T11:26:11;11.70;99.90
6758;DHT22;3416;53.074;8.822;2022-12-29T11:28:40;11.80;99.90
6758;DHT22;3416;53.074;8.822;2022-12-29T11:31:09;11.60;99.90
6758;DHT22;3416;53.074;8.822;2022-12-29T11:33:37;11.60;99.90
6758;DHT22;3416;53.074;8.822;2022-12-29T11:36:10;11.60;99.90
6758;DHT22;3416;53.074;8.822;2022-12-29T11:38:40;11.60;99.90
6758;DHT22;3416;53.074;8.822;2022-12-29T11:41:20;11.70;99.90
6758;DHT22;3416;53.074;8.822;2022-12-29T11:43:47;11.70;99.90
6758;DHT22;3416;53.074;8.822;2022-12-29T11:46:17;11.60;99.90
6758;DHT22;3416;53.074;8.822;2022-12-29T11:48:46;11.70;99.90
6758;DHT22;3416;53.074;8.822;2022-12-29T11:51:21;11.70;99.90
6758;DHT22;3416;53.074;8.822;2022-12-29T11:53:52;11.60;99.90
6758;DHT22;3416;53.074;8.822;2022-12-29T11:56:33;11.80;99.90
6758;DHT22;3416;53.074;8.822;2022-12-29T11:59:24;11.60;99.90
6758;DHT22;3416;53.074;8.822;2022-12-29T12:01:51;11.60;99.90
6758;DHT22;3416;53.074;8.822;2022-12-29T12:04:22;11.60;99.90
6758;DHT22;3416;53.074;8.822;2022-12-29T12:06:59;11.60;99.90
6758;DHT22;3416;53.074;8.822;2022-12-29T12:09:31;11.60;99.90
6758;DHT22;3416;53.074;8.822;2022-12-29T12:11:59;11.70;99.90
6758;DHT22;3416;53.074;8.822;2022-12-29T12:14:30;11.60;99.90
6758;DHT22;3416;53.074;8.822;2022-12-29T12:17:02;11.60;99.90
6758;DHT22;3416;53.074;8.822;2022-12-29T12:19:33;11.50;99.90
6758;DHT22;3416;53.074;8.822;2022-12-29T12:22:09;11.50;99.90
6758;DHT22;3416;53.074;8.822;2022-12-29T12:24:41;11.50;99.90
6758;DHT22;3416;53.074;8.822;2022-12-29T12:27:12;11.70;99.90
6758;DHT22;3416;53.074;8.822;2022-12-29T12:29:45;11.60;99.90
6758;DHT22;3416;53.074;8.822;2022-12-29T12:32:16;11.60;99.90
6758;DHT22;3416;53.074;8.822;2022-12-29T12:34:46;11.60;99.90
6758;DHT22;3416;53.074;8.822;2022-12-29T12:40:34;11.70;99.90
6758;DHT22;3416;53.074;8.822;2022-12-29T12:43:35;11.60;99.90
6758;DHT22;3416;53.074;8.822;2022-12-29T12:46:19;11.50;99.90
6758;DHT22;3416;53.074;8.822;2022-12-29T12:49:21;11.50;99.90
6758;DHT22;3416;53.074;8.822;2022-12-29T12:51:57;11.50;99.90
6758;DHT22;3416;53.074;8.822;2022-12-29T12:54:40;11.40;99.90
6758;DHT22;3416;53.074;8.822;2022-12-29T12:57:30;11.20;99.90
6758;DHT22;3416;53.074;8.822;2022-12-29T13:00:13;11.20;99.90
6758;DHT22;3416;53.074;8.822;2022-12-29T13:02:54;11.10;99.90
6758;DHT22;3416;53.074;8.822;2022-12-29T13:05:41;11.00;99.90
6758;DHT22;3416;53.074;8.822;2022-12-29T13:08:43;11.10;99.90
6758;DHT22;3416;53.074;8.822;2022-12-29T13:11:24;11.10;99.90
6758;DHT22;3416;53.074;8.822;2022-12-29T13:14:02;11.10;99.90
6758;DHT22;3416;53.074;8.822;2022-12-29T13:16:37;11.00;99.90
6758;DHT22;3416;53.074;8.822;2022-12-29T13:19:12;10.90;99.90
6758;DHT22;3416;53.074;8.822;2022-12-29T13:21:54;10.90;99.90
6758;DHT22;3416;53.074;8.822;2022-12-29T13:24:28;10.80;99.90
6758;DHT22;3416;53.074;8.822;2022-12-29T13:27:06;10.80;99.90
6758;DHT22;3416;53.074;8.822;2022-12-29T13:29:42;10.80;99.90
6758;DHT22;3416;53.074;8.822;2022-12-29T13:32:21;10.70;99.90
6758;DHT22;3416;53.074;8.822;2022-12-29T13:35:02;10.70;99.90
6758;DHT22;3416;53.074;8.822;2022-12-29T13:37:36;10.60;99.90
6758;DHT22;3416;53.074;8.822;2022-12-29T13:40:11;10.50;99.90
6758;DHT22;3416;53.074;8.822;2022-12-29T13:42:44;10.50;99.90
6758;DHT22;3416;53.074;8.822;2022-12-29T13:45:15;10.40;99.90
6758;DHT22;3416;53.074;8.822;2022-12-29T13:47:47;10.50;99.90
6758;DHT22;3416;53.074;8.822;2022-12-29T13:50:19;10.40;99.90
6758;DHT22;3416;53.074;8.822;2022-12-29T13:52:53;10.40;99.90
6758;DHT22;3416;53.074;8.822;2022-12-29T13:55:27;10.40;99.90
6758;DHT22;3416;53.074;8.822;2022-12-29T13:58:02;10.40;99.90
6758;DHT22;3416;53.074;8.822;2022-12-29T14:00:38;10.30;99.90
6758;DHT22;3416;53.074;8.822;2022-12-29T14:03:28;10.30;99.90
6758;DHT22;3416;53.074;8.822;2022-12-29T14:06:05;10.40;99.90
6758;DHT22;3416;53.074;8.822;2022-12-29T14:08:38;10.40;99.90
6758;DHT22;3416;53.074;8.822;2022-12-29T14:11:09;10.40;99.90
6758;DHT22;3416;53.074;8.822;2022-12-29T14:13:40;10.40;99.90
6758;DHT22;3416;53.074;8.822;2022-12-29T14:16:10;10.40;99.90
6758;DHT22;3416;53.074;8.822;2022-12-29T14:18:47;10.40;99.90
6758;DHT22;3416;53.074;8.822;2022-12-29T14:21:19;10.30;99.90
6758;DHT22;3416;53.074;8.822;2022-12-29T14:23:49;10.40;99.90
6758;DHT22;3416;53.074;8.822;2022-12-29T14:26:17;10.40;99.90
6758;DHT22;3416;53.074;8.822;2022-12-29T14:28:48;10.50;99.90
6758;DHT22;3416;53.074;8.822;2022-12-29T14:31:34;10.40;99.90
6758;DHT22;3416;53.074;8.822;2022-12-29T14:34:27;10.40;99.90
6758;DHT22;3416;53.074;8.822;2022-12-29T14:36:55;10.30;99.90
6758;DHT22;3416;53.074;8.822;2022-12-29T14:39:35;10.40;99.90
6758;DHT22;3416;53.074;8.822;2022-12-29T14:42:05;10.30;99.90
6758;DHT22;3416;53.074;8.822;2022-12-29T14:44:36;10.30;99.90
6758;DHT22;3416;53.074;8.822;2022-12-29T14:47:16;10.20;99.90
6758;DHT22;3416;53.074;8.822;2022-12-29T14:49:45;10.20;99.90
6758;DHT22;3416;53.074;8.822;2022-12-29T14:52:18;10.20;99.90
6758;DHT22;3416;53.074;8.822;2022-12-29T14:54:52;10.20;99.90
6758;DHT22;3416;53.074;8.822;2022-12-29T14:57:26;10.20;99.90
6758;DHT22;3416;53.074;8.822;2022-12-29T15:00:00;10.10;99.90
6758;DHT22;3416;53.074;8.822;2022-12-29T15:02:34;10.10;99.90
6758;DHT22;3416;53.074;8.822;2022-12-29T15:05:05;10.00;99.90
6758;DHT22;3416;53.074;8.822;2022-12-29T15:07:33;10.00;99.90
6758;DHT22;3416;53.074;8.822;2022-12-29T15:10:05;10.00;99.90
6758;DHT22;3416;53.074;8.822;2022-12-29T15:12:38;10.00;99.90
6758;DHT22;3416;53.074;8.822;2022-12-29T15:15:20;10.00;99.90
6758;DHT22;3416;53.074;8.822;2022-12-29T15:17:48;10.10;99.90
6758;DHT22;3416;53.074;8.822;2022-12-29T15:20:22;10.00;99.90
6758;DHT22;3416;53.074;8.822;2022-12-29T15:22:55;10.10;99.90
6758;DHT22;3416;53.074;8.822;2022-12-29T15:25:23;10.10;99.90
6758;DHT22;3416;53.074;8.822;2022-12-29T15:27:51;10.00;99.90
6758;DHT22;3416;53.074;8.822;2022-12-29T15:30:20;9.90;99.90
6758;DHT22;3416;53.074;8.822;2022-12-29T15:32:48;9.80;99.90
6758;DHT22;3416;53.074;8.822;2022-12-29T15:35:30;9.80;99.90
6758;DHT22;3416;53.074;8.822;2022-12-29T15:37:58;9.80;99.90
6758;DHT22;3416;53.074;8.822;2022-12-29T15:40:27;9.80;99.90
6758;DHT22;3416;53.074;8.822;2022-12-29T15:43:13;9.70;99.90
6758;DHT22;3416;53.074;8.822;2022-12-29T15:45:47;9.70;99.90
6758;DHT22;3416;53.074;8.822;2022-12-29T15:48:18;9.80;99.90
6758;DHT22;3416;53.074;8.822;2022-12-29T15:50:46;9.70;99.90
6758;DHT22;3416;53.074;8.822;2022-12-29T15:53:19;9.70;99.90
6758;DHT22;3416;53.074;8.822;2022-12-29T15:55:50;9.70;99.90
6758;DHT22;3416;53.074;8.822;2022-12-29T15:58:20;9.60;99.90
6758;DHT22;3416;53.074;8.822;2022-12-29T16:00:50;9.60;99.90
6758;DHT22;3416;53.074;8.822;2022-12-29T16:03:19;9.60;99.90
6758;DHT22;3416;53.074;8.822;2022-12-29T16:05:52;9.50;99.90
6758;DHT22;3416;53.074;8.822;2022-12-29T16:08:24;9.50;99.90
6758;DHT22;3416;53.074;8.822;2022-12-29T16:10:54;9.40;99.90
6758;DHT22;3416;53.074;8.822;2022-12-29T16:13:26;9.40;99.90
6758;DHT22;3416;53.074;8.822;2022-12-29T16:15:57;9.40;99.90
6758;DHT22;3416;53.074;8.822;2022-12-29T16:18:28;9.40;99.90
6758;DHT22;3416;53.074;8.822;2022-12-29T16:20:56;9.40;99.90
6758;DHT22;3416;53.074;8.822;2022-12-29T16:23:25;9.30;99.90
6758;DHT22;3416;53.074;8.822;2022-12-29T16:25:55;9.40;99.90
6758;DHT22;3416;53.074;8.822;2022-12-29T16:28:27;9.40;99.90
6758;DHT22;3416;53.074;8.822;2022-12-29T16:31:01;9.50;99.90
6758;DHT22;3416;53.074;8.822;2022-12-29T16:33:44;9.60;99.90
6758;DHT22;3416;53.074;8.822;2022-12-29T16:36:30;9.70;99.90
6758;DHT22;3416;53.074;8.822;2022-12-29T16:39:15;9.70;99.90
6758;DHT22;3416;53.074;8.822;2022-12-29T16:41:43;9.70;99.90
6758;DHT22;3416;53.074;8.822;2022-12-29T16:44:16;9.70;99.90